sensor_id;sensor_type;location;lat;lon;timestamp;pressure;altitude;pressure_sealevel;temperature;humidity
77351;BME280;66420;50.246;14.320;2023-02-22T00:00:16;99466.28;;;7.77;72.78
77351;BME280;66420;50.246;14.320;2023-02-22T00:03:06;99461.88;;;7.81;72.44
77351;BME280;66420;50.246;14.320;2023-02-22T00:05:56;99459.59;;;7.88;72.16
77351;BME280;66420;50.246;14.320;2023-02-22T00:08:41;99468.28;;;7.90;72.24
77351;BME280;66420;50.246;14.320;2023-02-22T00:11:26;99447.66;;;7.84;72.31
77351;BME280;66420;50.246;14.320;2023-02-22T00:14:10;99456.34;;;7.86;72.21
77351;BME280;66420;50.246;14.320;2023-02-22T00:16:56;99448.53;;;7.80;72.87
77351;BME280;66420;50.246;14.320;2023-02-22T00:19:42;99453.09;;;7.84;72.86
77351;BME280;66420;50.246;14.320;2023-02-22T00:22:27;99452.59;;;7.82;72.45
77351;BME280;66420;50.246;14.320;2023-02-22T00:25:13;99453.91;;;7.85;72.61
77351;BME280;66420;50.246;14.320;2023-02-22T00:27:58;99451.50;;;7.83;73.07
77351;BME280;66420;50.246;14.320;2023-02-22T00:30:44;99454.13;;;7.88;72.70
77351;BME280;66420;50.246;14.320;2023-02-22T00:33:29;99451.72;;;7.87;73.00
77351;BME280;66420;50.246;14.320;2023-02-22T00:36:13;99447.09;;;7.87;72.59
77351;BME280;66420;50.246;14.320;2023-02-22T00:38:58;99446.50;;;7.90;72.74
77351;BME280;66420;50.246;14.320;2023-02-22T00:41:42;99439.41;;;7.89;72.18
77351;BME280;66420;50.246;14.320;2023-02-22T00:44:27;99442.13;;;7.89;72.98
77351;BME280;66420;50.246;14.320;2023-02-22T00:47:12;99436.13;;;7.92;72.20
77351;BME280;66420;50.246;14.320;2023-02-22T00:49:56;99437.66;;;7.98;72.38
77351;BME280;66420;50.246;14.320;2023-02-22T00:52:41;99437.66;;;7.98;72.11
77351;BME280;66420;50.246;14.320;2023-02-22T00:55:29;99438.41;;;8.04;71.58
77351;BME280;66420;50.246;14.320;2023-02-22T00:58:14;99434.84;;;8.03;71.92
77351;BME280;66420;50.246;14.320;2023-02-22T01:00:59;99437.78;;;7.88;72.81
77351;BME280;66420;50.246;14.320;2023-02-22T01:03:44;99437.78;;;7.88;72.44
77351;BME280;66420;50.246;14.320;2023-02-22T01:06:28;99435.59;;;7.90;72.88
77351;BME280;66420;50.246;14.320;2023-02-22T01:09:13;99433.53;;;7.82;72.64
77351;BME280;66420;50.246;14.320;2023-02-22T01:11:57;99426.19;;;7.83;73.01
77351;BME280;66420;50.246;14.320;2023-02-22T01:14:42;99430.50;;;7.84;72.80
77351;BME280;66420;50.246;14.320;2023-02-22T01:17:27;99423.06;;;7.89;72.26
77351;BME280;66420;50.246;14.320;2023-02-22T01:20:11;99421.91;;;7.95;72.47
77351;BME280;66420;50.246;14.320;2023-02-22T01:22:58;99428.97;;;7.96;72.71
77351;BME280;66420;50.246;14.320;2023-02-22T01:25:43;99429.25;;;7.95;72.69
77351;BME280;66420;50.246;14.320;2023-02-22T01:28:28;99424.34;;;7.97;72.36
77351;BME280;66420;50.246;14.320;2023-02-22T01:31:13;99418.00;;;8.01;72.27
77351;BME280;66420;50.246;14.320;2023-02-22T01:33:57;99424.56;;;8.00;73.06
77351;BME280;66420;50.246;14.320;2023-02-22T01:36:42;99424.34;;;7.97;72.71
77351;BME280;66420;50.246;14.320;2023-02-22T01:39:27;99418.16;;;7.91;72.93
77351;BME280;66420;50.246;14.320;2023-02-22T01:42:11;99429.03;;;7.91;73.90
77351;BME280;66420;50.246;14.320;2023-02-22T01:48:34;99426.38;;;7.86;73.98
77351;BME280;66420;50.246;14.320;2023-02-22T01:51:27;99436.75;;;7.84;73.77
77351;BME280;66420;50.246;14.320;2023-02-22T01:54:17;99429.19;;;7.81;73.98
77351;BME280;66420;50.246;14.320;2023-02-22T01:57:10;99421.53;;;7.83;74.10
77351;BME280;66420;50.246;14.320;2023-02-22T01:59:59;99415.78;;;7.85;74.37
77351;BME280;66420;50.246;14.320;2023-02-22T02:02:48;99418.81;;;7.83;74.41
77351;BME280;66420;50.246;14.320;2023-02-22T02:05:36;99423.44;;;7.83;74.21
77351;BME280;66420;50.246;14.320;2023-02-22T02:08:42;99420.19;;;7.81;74.47
77351;BME280;66420;50.246;14.320;2023-02-22T02:11:31;99407.97;;;7.78;74.06
77351;BME280;66420;50.246;14.320;2023-02-22T02:14:16;99418.00;;;7.83;74.57
77351;BME280;66420;50.246;14.320;2023-02-22T02:17:01;99416.16;;;7.78;74.16
77351;BME280;66420;50.246;14.320;2023-02-22T02:22:46;99408.81;;;7.79;74.80
77351;BME280;66420;50.246;14.320;2023-02-22T02:31:51;99399.22;;;7.81;74.36
77351;BME280;66420;50.246;14.320;2023-02-22T02:34:49;99401.34;;;7.84;74.54
77351;BME280;66420;50.246;14.320;2023-02-22T02:37:49;99404.59;;;7.86;74.08
77351;BME280;66420;50.246;14.320;2023-02-22T02:40:49;99401.28;;;7.89;74.47
77351;BME280;66420;50.246;14.320;2023-02-22T02:43:46;99392.81;;;7.91;74.33
77351;BME280;66420;50.246;14.320;2023-02-22T02:49:47;99388.09;;;7.96;73.89
77351;BME280;66420;50.246;14.320;2023-02-22T02:52:35;99378.38;;;7.90;74.59
77351;BME280;66420;50.246;14.320;2023-02-22T02:55:21;99387.84;;;7.93;74.49
77351;BME280;66420;50.246;14.320;2023-02-22T02:58:07;99387.28;;;7.96;74.33
77351;BME280;66420;50.246;14.320;2023-02-22T03:00:55;99387.50;;;7.81;74.84
77351;BME280;66420;50.246;14.320;2023-02-22T03:03:47;99385.88;;;7.61;75.65
77351;BME280;66420;50.246;14.320;2023-02-22T03:07:02;99374.91;;;7.66;75.24
77351;BME280;66420;50.246;14.320;2023-02-22T03:19:44;99379.19;;;7.72;74.90
77351;BME280;66420;50.246;14.320;2023-02-22T03:22:46;99378.66;;;7.70;74.83
77351;BME280;66420;50.246;14.320;2023-02-22T03:25:40;99379.19;;;7.72;75.64
77351;BME280;66420;50.246;14.320;2023-02-22T03:28:28;99381.75;;;7.64;75.58
77351;BME280;66420;50.246;14.320;2023-02-22T03:31:23;99379.91;;;7.59;75.68
77351;BME280;66420;50.246;14.320;2023-02-22T03:34:15;99383.75;;;7.58;76.11
77351;BME280;66420;50.246;14.320;2023-02-22T03:37:37;99379.97;;;7.54;76.14
77351;BME280;66420;50.246;14.320;2023-02-22T03:40:24;99388.72;;;7.32;77.82
77351;BME280;66420;50.246;14.320;2023-02-22T03:43:16;99380.44;;;7.19;78.47
77351;BME280;66420;50.246;14.320;2023-02-22T03:46:05;99384.69;;;7.25;78.12
77351;BME280;66420;50.246;14.320;2023-02-22T03:49:03;99386.34;;;7.26;77.70
77351;BME280;66420;50.246;14.320;2023-02-22T03:51:50;99387.97;;;7.27;78.28
77351;BME280;66420;50.246;14.320;2023-02-22T03:54:35;99383.66;;;7.21;78.34
77351;BME280;66420;50.246;14.320;2023-02-22T03:57:25;99390.75;;;7.22;78.19
77351;BME280;66420;50.246;14.320;2023-02-22T04:00:14;99382.63;;;7.17;78.54
77351;BME280;66420;50.246;14.320;2023-02-22T04:03:01;99383.00;;;7.10;78.64
77351;BME280;66420;50.246;14.320;2023-02-22T04:05:47;99378.44;;;7.05;79.10
77351;BME280;66420;50.246;14.320;2023-02-22T04:08:32;99378.94;;;7.07;78.66
77351;BME280;66420;50.246;14.320;2023-02-22T04:11:17;99380.56;;;7.08;78.58
77351;BME280;66420;50.246;14.320;2023-02-22T04:14:05;99384.91;;;7.09;78.75
77351;BME280;66420;50.246;14.320;2023-02-22T04:16:50;99390.41;;;7.04;78.69
77351;BME280;66420;50.246;14.320;2023-02-22T04:19:35;99384.75;;;7.01;78.63
77351;BME280;66420;50.246;14.320;2023-02-22T04:22:20;99382.41;;;6.89;79.07
77351;BME280;66420;50.246;14.320;2023-02-22T04:25:06;99390.34;;;6.86;79.60
77351;BME280;66420;50.246;14.320;2023-02-22T04:27:51;99398.94;;;6.93;79.42
77351;BME280;66420;50.246;14.320;2023-02-22T04:30:36;99397.03;;;6.93;79.27
77351;BME280;66420;50.246;14.320;2023-02-22T04:33:21;99393.88;;;6.86;79.78
77351;BME280;66420;50.246;14.320;2023-02-22T04:36:05;99392.19;;;6.90;79.99
77351;BME280;66420;50.246;14.320;2023-02-22T04:38:51;99388.38;;;6.91;79.81
77351;BME280;66420;50.246;14.320;2023-02-22T04:41:35;99387.03;;;6.89;79.49
77351;BME280;66420;50.246;14.320;2023-02-22T04:44:20;99383.81;;;6.87;80.03
77351;BME280;66420;50.246;14.320;2023-02-22T04:47:05;99378.06;;;6.88;79.73
77351;BME280;66420;50.246;14.320;2023-02-22T04:49:49;99382.88;;;6.96;79.44
77351;BME280;66420;50.246;14.320;2023-02-22T04:52:34;99379.28;;;7.01;79.58
77351;BME280;66420;50.246;14.320;2023-02-22T04:55:18;99377.44;;;6.96;79.16
77351;BME280;66420;50.246;14.320;2023-02-22T04:58:03;99378.59;;;6.90;79.46
77351;BME280;66420;50.246;14.320;2023-02-22T05:00:47;99371.00;;;6.87;79.31
77351;BME280;66420;50.246;14.320;2023-02-22T05:03:32;99368.63;;;6.81;79.91
77351;BME280;66420;50.246;14.320;2023-02-22T05:06:17;99374.66;;;6.78;79.89
77351;BME280;66420;50.246;14.320;2023-02-22T05:09:06;99376.31;;;6.74;79.77
77351;BME280;66420;50.246;14.320;2023-02-22T05:11:51;99376.66;;;6.67;79.98
77351;BME280;66420;50.246;14.320;2023-02-22T05:14:36;99374.63;;;6.54;81.16
77351;BME280;66420;50.246;14.320;2023-02-22T05:17:22;99362.78;;;6.40;81.28
77351;BME280;66420;50.246;14.320;2023-02-22T05:20:09;99371.22;;;6.38;81.40
77351;BME280;66420;50.246;14.320;2023-02-22T05:23:01;99365.53;;;6.35;81.68
77351;BME280;66420;50.246;14.320;2023-02-22T05:25:46;99371.44;;;6.42;81.30
77351;BME280;66420;50.246;14.320;2023-02-22T05:28:31;99369.84;;;6.41;81.22
77351;BME280;66420;50.246;14.320;2023-02-22T05:31:16;99373.13;;;6.38;81.57
77351;BME280;66420;50.246;14.320;2023-02-22T05:34:00;99379.31;;;6.43;81.35
77351;BME280;66420;50.246;14.320;2023-02-22T05:36:45;99361.69;;;6.41;81.53
77351;BME280;66420;50.246;14.320;2023-02-22T05:39:30;99368.84;;;6.32;81.89
77351;BME280;66420;50.246;14.320;2023-02-22T05:42:15;99366.22;;;6.21;81.98
77351;BME280;66420;50.246;14.320;2023-02-22T05:45:00;99366.03;;;6.08;82.24
77351;BME280;66420;50.246;14.320;2023-02-22T05:47:45;99362.78;;;6.06;82.10
77351;BME280;66420;50.246;14.320;2023-02-22T05:50:30;99357.38;;;6.01;82.41
77351;BME280;66420;50.246;14.320;2023-02-22T05:53:16;99357.47;;;5.96;82.31
77351;BME280;66420;50.246;14.320;2023-02-22T05:56:02;99371.84;;;5.91;82.43
77351;BME280;66420;50.246;14.320;2023-02-22T05:58:47;99373.75;;;5.96;82.71
77351;BME280;66420;50.246;14.320;2023-02-22T06:01:31;99367.53;;;5.90;82.54
77351;BME280;66420;50.246;14.320;2023-02-22T06:04:16;99371.94;;;5.76;83.15
77351;BME280;66420;50.246;14.320;2023-02-22T06:07:01;99363.88;;;5.66;83.38
77351;BME280;66420;50.246;14.320;2023-02-22T06:09:45;99366.31;;;5.67;83.20
77351;BME280;66420;50.246;14.320;2023-02-22T06:12:29;99374.69;;;5.71;83.08
77351;BME280;66420;50.246;14.320;2023-02-22T06:15:15;99374.41;;;5.72;83.63
77351;BME280;66420;50.246;14.320;2023-02-22T06:18:00;99383.09;;;5.74;83.18
77351;BME280;66420;50.246;14.320;2023-02-22T06:20:45;99383.94;;;5.70;83.07
77351;BME280;66420;50.246;14.320;2023-02-22T06:23:30;99373.66;;;5.62;83.07
77351;BME280;66420;50.246;14.320;2023-02-22T06:26:16;99377.44;;;5.66;82.88
77351;BME280;66420;50.246;14.320;2023-02-22T06:29:01;99379.28;;;5.75;83.48
77351;BME280;66420;50.246;14.320;2023-02-22T06:31:46;99384.69;;;5.80;82.91
77351;BME280;66420;50.246;14.320;2023-02-22T06:34:31;99384.94;;;5.89;82.92
77351;BME280;66420;50.246;14.320;2023-02-22T06:37:15;99384.66;;;5.91;82.59
77351;BME280;66420;50.246;14.320;2023-02-22T06:40:00;99388.63;;;6.03;82.24
77351;BME280;66420;50.246;14.320;2023-02-22T06:42:47;99389.09;;;6.10;82.17
77351;BME280;66420;50.246;14.320;2023-02-22T06:45:32;99382.53;;;6.16;81.64
77351;BME280;66420;50.246;14.320;2023-02-22T06:48:17;99392.25;;;6.28;81.36
77351;BME280;66420;50.246;14.320;2023-02-22T06:51:02;99393.53;;;6.35;81.57
77351;BME280;66420;50.246;14.320;2023-02-22T06:53:46;99393.78;;;6.39;80.93
77351;BME280;66420;50.246;14.320;2023-02-22T06:56:30;99395.91;;;6.42;81.62
77351;BME280;66420;50.246;14.320;2023-02-22T06:59:16;99396.88;;;6.56;80.76
77351;BME280;66420;50.246;14.320;2023-02-22T07:02:00;99393.91;;;6.52;80.72
77351;BME280;66420;50.246;14.320;2023-02-22T07:04:47;99399.84;;;6.59;80.82
77351;BME280;66420;50.246;14.320;2023-02-22T07:07:31;99404.63;;;6.73;80.38
77351;BME280;66420;50.246;14.320;2023-02-22T07:10:26;99405.44;;;6.73;80.59
77351;BME280;66420;50.246;14.320;2023-02-22T07:13:10;99408.59;;;6.80;80.29
77351;BME280;66420;50.246;14.320;2023-02-22T07:15:55;99409.50;;;6.99;79.91
77351;BME280;66420;50.246;14.320;2023-02-22T07:18:40;99409.84;;;7.17;79.42
77351;BME280;66420;50.246;14.320;2023-02-22T07:21:24;99406.97;;;7.32;78.84
77351;BME280;66420;50.246;14.320;2023-02-22T07:24:08;99411.22;;;7.38;78.50
77351;BME280;66420;50.246;14.320;2023-02-22T07:26:53;99411.69;;;7.45;78.21
77351;BME280;66420;50.246;14.320;2023-02-22T07:29:37;99408.91;;;7.50;77.88
77351;BME280;66420;50.246;14.320;2023-02-22T07:32:22;99410.91;;;7.63;77.73
77351;BME280;66420;50.246;14.320;2023-02-22T07:35:13;99408.47;;;7.80;77.31
77351;BME280;66420;50.246;14.320;2023-02-22T07:37:58;99408.41;;;7.85;77.82
77351;BME280;66420;50.246;14.320;2023-02-22T07:40:43;99410.25;;;8.09;76.53
77351;BME280;66420;50.246;14.320;2023-02-22T07:43:28;99415.75;;;8.22;75.68
77351;BME280;66420;50.246;14.320;2023-02-22T07:46:15;99415.84;;;8.36;75.02
77351;BME280;66420;50.246;14.320;2023-02-22T07:48:59;99412.09;;;8.32;75.65
77351;BME280;66420;50.246;14.320;2023-02-22T07:51:43;99414.97;;;8.40;75.79
77351;BME280;66420;50.246;14.320;2023-02-22T07:54:28;99406.78;;;8.40;75.57
77351;BME280;66420;50.246;14.320;2023-02-22T07:57:14;99410.25;;;8.46;75.63
77351;BME280;66420;50.246;14.320;2023-02-22T07:59:58;99407.16;;;8.66;75.35
77351;BME280;66420;50.246;14.320;2023-02-22T08:02:43;99407.50;;;8.78;74.84
77351;BME280;66420;50.246;14.320;2023-02-22T08:05:29;99413.16;;;8.82;73.67
77351;BME280;66420;50.246;14.320;2023-02-22T08:08:14;99404.59;;;8.88;72.90
77351;BME280;66420;50.246;14.320;2023-02-22T08:10:59;99410.25;;;8.92;73.05
77351;BME280;66420;50.246;14.320;2023-02-22T08:13:44;99407.84;;;9.18;73.15
77351;BME280;66420;50.246;14.320;2023-02-22T08:16:28;99413.72;;;9.25;72.21
77351;BME280;66420;50.246;14.320;2023-02-22T08:19:12;99415.91;;;9.37;71.92
77351;BME280;66420;50.246;14.320;2023-02-22T08:21:57;99409.97;;;9.34;71.39
77351;BME280;66420;50.246;14.320;2023-02-22T08:24:41;99415.19;;;9.58;70.54
77351;BME280;66420;50.246;14.320;2023-02-22T08:27:28;99408.50;;;9.64;70.50
77351;BME280;66420;50.246;14.320;2023-02-22T08:30:15;99413.34;;;9.81;69.62
77351;BME280;66420;50.246;14.320;2023-02-22T08:33:01;99404.66;;;9.79;68.00
77351;BME280;66420;50.246;14.320;2023-02-22T08:35:47;99411.72;;;9.94;69.19
77351;BME280;66420;50.246;14.320;2023-02-22T08:38:34;99414.50;;;10.02;68.09
77351;BME280;66420;50.246;14.320;2023-02-22T08:41:19;99416.63;;;10.05;68.15
77351;BME280;66420;50.246;14.320;2023-02-22T08:44:03;99416.50;;;10.24;68.37
77351;BME280;66420;50.246;14.320;2023-02-22T08:46:48;99410.66;;;10.17;68.94
77351;BME280;66420;50.246;14.320;2023-02-22T08:49:32;99417.00;;;10.26;68.12
77351;BME280;66420;50.246;14.320;2023-02-22T08:52:19;99401.69;;;10.25;67.21
77351;BME280;66420;50.246;14.320;2023-02-22T08:55:05;99415.50;;;10.20;68.16
77351;BME280;66420;50.246;14.320;2023-02-22T08:57:50;99413.19;;;10.00;67.50
77351;BME280;66420;50.246;14.320;2023-02-22T09:00:37;99413.97;;;10.14;67.76
77351;BME280;66420;50.246;14.320;2023-02-22T09:03:22;99407.19;;;10.25;67.48
77351;BME280;66420;50.246;14.320;2023-02-22T09:06:06;99415.44;;;10.34;67.00
77351;BME280;66420;50.246;14.320;2023-02-22T09:08:51;99412.13;;;10.23;67.42
77351;BME280;66420;50.246;14.320;2023-02-22T09:11:35;99405.13;;;10.31;66.03
77351;BME280;66420;50.246;14.320;2023-02-22T09:14:20;99409.16;;;10.33;66.31
77351;BME280;66420;50.246;14.320;2023-02-22T09:17:04;99409.50;;;10.18;65.57
77351;BME280;66420;50.246;14.320;2023-02-22T09:19:49;99406.72;;;10.32;66.59
77351;BME280;66420;50.246;14.320;2023-02-22T09:22:34;99406.19;;;10.21;66.05
77351;BME280;66420;50.246;14.320;2023-02-22T09:25:21;99411.38;;;10.31;66.07
77351;BME280;66420;50.246;14.320;2023-02-22T09:28:06;99413.25;;;10.08;66.95
77351;BME280;66420;50.246;14.320;2023-02-22T09:30:51;99404.88;;;10.05;67.59
77351;BME280;66420;50.246;14.320;2023-02-22T09:33:36;99411.75;;;10.16;66.41
77351;BME280;66420;50.246;14.320;2023-02-22T09:36:20;99407.59;;;10.18;67.42
77351;BME280;66420;50.246;14.320;2023-02-22T09:39:06;99406.34;;;10.25;66.40
77351;BME280;66420;50.246;14.320;2023-02-22T09:42:02;99408.34;;;10.33;65.36
77351;BME280;66420;50.246;14.320;2023-02-22T09:47:55;99405.78;;;10.36;65.99
77351;BME280;66420;50.246;14.320;2023-02-22T09:50:42;99391.50;;;10.39;65.84
77351;BME280;66420;50.246;14.320;2023-02-22T09:53:39;99394.34;;;10.56;64.37
77351;BME280;66420;50.246;14.320;2023-02-22T09:56:26;99397.81;;;10.71;64.14
77351;BME280;66420;50.246;14.320;2023-02-22T09:59:21;99389.56;;;10.62;63.68
77351;BME280;66420;50.246;14.320;2023-02-22T10:02:16;99393.88;;;10.85;64.22
77351;BME280;66420;50.246;14.320;2023-02-22T10:07:58;99390.53;;;10.97;62.21
77351;BME280;66420;50.246;14.320;2023-02-22T10:10:45;99388.59;;;10.89;63.07
77351;BME280;66420;50.246;14.320;2023-02-22T10:32:03;99372.44;;;11.75;58.74
77351;BME280;66420;50.246;14.320;2023-02-22T10:34:49;99361.31;;;11.88;58.45
77351;BME280;66420;50.246;14.320;2023-02-22T10:37:37;99360.19;;;11.81;59.78
77351;BME280;66420;50.246;14.320;2023-02-22T10:40:24;99367.00;;;12.09;59.25
77351;BME280;66420;50.246;14.320;2023-02-22T10:43:15;99367.63;;;12.23;59.03
77351;BME280;66420;50.246;14.320;2023-02-22T10:46:03;99361.78;;;12.51;57.77
77351;BME280;66420;50.246;14.320;2023-02-22T10:48:53;99362.47;;;12.13;58.71
77351;BME280;66420;50.246;14.320;2023-02-22T10:51:39;99351.75;;;12.37;58.85
77351;BME280;66420;50.246;14.320;2023-02-22T10:54:30;99357.41;;;12.50;58.80
77351;BME280;66420;50.246;14.320;2023-02-22T10:57:22;99351.53;;;12.77;57.18
77351;BME280;66420;50.246;14.320;2023-02-22T11:00:17;99354.75;;;12.70;57.60
77351;BME280;66420;50.246;14.320;2023-02-22T11:03:20;99355.22;;;12.81;56.47
77351;BME280;66420;50.246;14.320;2023-02-22T11:06:18;99349.06;;;12.84;56.76
77351;BME280;66420;50.246;14.320;2023-02-22T11:09:09;99343.59;;;12.75;56.64
77351;BME280;66420;50.246;14.320;2023-02-22T11:12:15;99335.31;;;12.37;57.70
77351;BME280;66420;50.246;14.320;2023-02-22T11:18:00;99331.38;;;12.64;59.09
77351;BME280;66420;50.246;14.320;2023-02-22T11:20:45;99342.97;;;12.70;58.33
77351;BME280;66420;50.246;14.320;2023-02-22T11:23:31;99331.81;;;12.75;58.69
77351;BME280;66420;50.246;14.320;2023-02-22T11:26:17;99329.47;;;12.48;58.41
77351;BME280;66420;50.246;14.320;2023-02-22T11:29:14;99332.72;;;12.41;59.73
77351;BME280;66420;50.246;14.320;2023-02-22T11:32:21;99327.28;;;12.07;61.29
77351;BME280;66420;50.246;14.320;2023-02-22T11:35:58;99328.72;;;12.21;61.20
77351;BME280;66420;50.246;14.320;2023-02-22T11:38:54;99321.47;;;12.17;61.01
77351;BME280;66420;50.246;14.320;2023-02-22T11:41:41;99325.00;;;12.26;61.03
77351;BME280;66420;50.246;14.320;2023-02-22T11:44:29;99318.56;;;12.22;60.22
77351;BME280;66420;50.246;14.320;2023-02-22T11:47:14;99313.56;;;12.07;60.41
77351;BME280;66420;50.246;14.320;2023-02-22T11:49:59;99312.44;;;11.99;61.15
77351;BME280;66420;50.246;14.320;2023-02-22T11:52:52;99306.31;;;12.02;60.38
77351;BME280;66420;50.246;14.320;2023-02-22T12:21:04;99283.72;;;12.05;59.92
77351;BME280;66420;50.246;14.320;2023-02-22T12:23:55;99282.88;;;12.30;60.04
77351;BME280;66420;50.246;14.320;2023-02-22T12:27:07;99287.34;;;12.43;59.47
77351;BME280;66420;50.246;14.320;2023-02-22T12:33:19;99267.56;;;12.12;60.13
77351;BME280;66420;50.246;14.320;2023-02-22T12:36:12;99262.56;;;12.14;59.80
77351;BME280;66420;50.246;14.320;2023-02-22T12:39:23;99279.16;;;12.26;59.54
77351;BME280;66420;50.246;14.320;2023-02-22T12:45:42;99273.75;;;11.75;60.91
77351;BME280;66420;50.246;14.320;2023-02-22T12:48:59;99278.22;;;11.71;60.96
77351;BME280;66420;50.246;14.320;2023-02-22T12:52:12;99280.69;;;11.72;62.00
77351;BME280;66420;50.246;14.320;2023-02-22T12:55:15;99270.50;;;11.90;61.17
77351;BME280;66420;50.246;14.320;2023-02-22T12:58:26;99266.47;;;11.79;61.26
77351;BME280;66420;50.246;14.320;2023-02-22T13:01:17;99270.16;;;11.66;61.02
77351;BME280;66420;50.246;14.320;2023-02-22T13:04:03;99272.59;;;11.67;62.07
77351;BME280;66420;50.246;14.320;2023-02-22T13:06:51;99270.66;;;11.68;61.76
77351;BME280;66420;50.246;14.320;2023-02-22T13:10:13;99270.00;;;11.71;62.42
77351;BME280;66420;50.246;14.320;2023-02-22T13:16:50;99270.19;;;12.00;61.86
77351;BME280;66420;50.246;14.320;2023-02-22T13:22:42;99267.25;;;11.96;62.12
77351;BME280;66420;50.246;14.320;2023-02-22T13:53:14;99266.97;;;11.64;63.23
77351;BME280;66420;50.246;14.320;2023-02-22T13:56:00;99265.19;;;11.68;63.64
77351;BME280;66420;50.246;14.320;2023-02-22T14:01:40;99257.41;;;11.70;62.96
77351;BME280;66420;50.246;14.320;2023-02-22T14:10:37;99263.84;;;11.22;64.07
77351;BME280;66420;50.246;14.320;2023-02-22T14:13:24;99259.63;;;11.07;63.94
77351;BME280;66420;50.246;14.320;2023-02-22T14:21:59;99245.28;;;11.02;64.67
77351;BME280;66420;50.246;14.320;2023-02-22T14:24:47;99247.19;;;10.93;64.70
77351;BME280;66420;50.246;14.320;2023-02-22T14:27:39;99253.81;;;11.00;64.54
77351;BME280;66420;50.246;14.320;2023-02-22T14:30:26;99247.56;;;11.17;64.95
77351;BME280;66420;50.246;14.320;2023-02-22T14:36:56;99246.53;;;10.96;65.09
77351;BME280;66420;50.246;14.320;2023-02-22T14:43:12;99247.34;;;10.88;64.41
77351;BME280;66420;50.246;14.320;2023-02-22T14:45:59;99249.13;;;11.01;64.30
77351;BME280;66420;50.246;14.320;2023-02-22T14:48:52;99246.38;;;10.92;64.24
77351;BME280;66420;50.246;14.320;2023-02-22T14:52:05;99249.47;;;10.99;63.80
77351;BME280;66420;50.246;14.320;2023-02-22T14:55:19;99241.84;;;10.88;64.30
77351;BME280;66420;50.246;14.320;2023-02-22T14:58:13;99248.94;;;10.80;63.51
77351;BME280;66420;50.246;14.320;2023-02-22T15:04:29;99247.72;;;10.55;64.60
77351;BME280;66420;50.246;14.320;2023-02-22T15:07:27;99239.19;;;10.57;64.88
77351;BME280;66420;50.246;14.320;2023-02-22T15:10:22;99239.72;;;10.68;64.56
77351;BME280;66420;50.246;14.320;2023-02-22T15:13:21;99245.47;;;10.57;65.00
77351;BME280;66420;50.246;14.320;2023-02-22T15:16:12;99242.56;;;10.54;65.15
77351;BME280;66420;50.246;14.320;2023-02-22T15:19:02;99243.00;;;10.47;65.52
77351;BME280;66420;50.246;14.320;2023-02-22T15:21:48;99241.09;;;10.48;65.23
77351;BME280;66420;50.246;14.320;2023-02-22T15:24:34;99240.38;;;10.34;65.99
77351;BME280;66420;50.246;14.320;2023-02-22T15:27:20;99235.72;;;10.34;66.43
77351;BME280;66420;50.246;14.320;2023-02-22T15:30:15;99237.63;;;10.34;66.71
77351;BME280;66420;50.246;14.320;2023-02-22T15:33:18;99239.06;;;10.31;66.81
77351;BME280;66420;50.246;14.320;2023-02-22T15:36:14;99237.81;;;10.37;66.75
77351;BME280;66420;50.246;14.320;2023-02-22T15:38:59;99237.13;;;10.32;66.95
77351;BME280;66420;50.246;14.320;2023-02-22T15:41:43;99226.03;;;10.28;67.54
77351;BME280;66420;50.246;14.320;2023-02-22T15:44:36;99230.84;;;10.31;67.61
77351;BME280;66420;50.246;14.320;2023-02-22T15:47:23;99229.69;;;10.23;67.75
77351;BME280;66420;50.246;14.320;2023-02-22T15:50:57;99233.56;;;10.22;67.40
77351;BME280;66420;50.246;14.320;2023-02-22T15:53:44;99242.56;;;10.23;68.08
77351;BME280;66420;50.246;14.320;2023-02-22T15:56:31;99241.28;;;10.20;68.29
77351;BME280;66420;50.246;14.320;2023-02-22T15:59:18;99234.28;;;10.14;68.53
77351;BME280;66420;50.246;14.320;2023-02-22T16:02:03;99233.13;;;10.07;69.13
77351;BME280;66420;50.246;14.320;2023-02-22T16:04:48;99232.63;;;10.05;69.11
77351;BME280;66420;50.246;14.320;2023-02-22T16:07:46;99228.25;;;10.04;68.92
77351;BME280;66420;50.246;14.320;2023-02-22T16:10:31;99225.81;;;9.94;69.33
77351;BME280;66420;50.246;14.320;2023-02-22T16:13:23;99228.44;;;9.99;69.34
77351;BME280;66420;50.246;14.320;2023-02-22T16:28:24;99223.34;;;9.61;71.82
77351;BME280;66420;50.246;14.320;2023-02-22T16:31:09;99229.22;;;9.55;71.84
77351;BME280;66420;50.246;14.320;2023-02-22T16:33:53;99238.34;;;9.50;71.92
77351;BME280;66420;50.246;14.320;2023-02-22T16:36:44;99229.97;;;9.47;71.42
77351;BME280;66420;50.246;14.320;2023-02-22T16:39:31;99231.38;;;9.44;72.17
77351;BME280;66420;50.246;14.320;2023-02-22T16:42:18;99236.53;;;9.46;71.96
77351;BME280;66420;50.246;14.320;2023-02-22T16:45:07;99246.06;;;9.48;71.85
77351;BME280;66420;50.246;14.320;2023-02-22T16:47:52;99233.94;;;9.41;72.39
77351;BME280;66420;50.246;14.320;2023-02-22T16:50:37;99239.84;;;9.34;72.32
77351;BME280;66420;50.246;14.320;2023-02-22T16:53:23;99240.94;;;9.33;72.76
77351;BME280;66420;50.246;14.320;2023-02-22T16:56:10;99243.06;;;9.36;72.75
77351;BME280;66420;50.246;14.320;2023-02-22T16:59:00;99245.28;;;9.34;72.19
77351;BME280;66420;50.246;14.320;2023-02-22T17:01:46;99249.13;;;9.33;72.29
77351;BME280;66420;50.246;14.320;2023-02-22T17:04:30;99241.06;;;9.28;72.31
77351;BME280;66420;50.246;14.320;2023-02-22T17:07:16;99258.56;;;9.27;72.83
77351;BME280;66420;50.246;14.320;2023-02-22T17:10:01;99252.19;;;9.18;72.80
77351;BME280;66420;50.246;14.320;2023-02-22T17:12:49;99253.81;;;9.19;72.89
77351;BME280;66420;50.246;14.320;2023-02-22T17:15:36;99258.28;;;9.15;73.14
77351;BME280;66420;50.246;14.320;2023-02-22T17:18:22;99260.50;;;9.13;73.47
77351;BME280;66420;50.246;14.320;2023-02-22T17:21:09;99263.34;;;9.08;74.08
77351;BME280;66420;50.246;14.320;2023-02-22T17:23:54;99255.78;;;9.05;73.31
77351;BME280;66420;50.246;14.320;2023-02-22T17:26:40;99246.97;;;9.08;73.33